Time;durP1;ratioP1;P1;durP2;ratioP2;P2;SDS_P1;SDS_P2;PMS_P1;PMS_P2;Temp;Humidity;BMP_temperature;BMP_pressure;BME280_temperature;BME280_humidity;BME280_pressure;Samples;Min_cycle;Max_cycle;Signal;HPM_P1;HPM_P2
2023/09/23 00:02:09;;;;;;;1.20;1.03;;;;;;;;;;6230164;23;20489;-86
2023/09/23 00:04:35;;;;;;;1.13;0.93;;;;;;;;;;6227867;23;20844;-87
2023/09/23 00:07:01;;;;;;;1.40;0.77;;;;;;;;;;6205980;23;20370;-88
2023/09/23 00:09:28;;;;;;;1.60;1.30;;;;;;;;;;6204930;23;20375;-88
2023/09/23 00:11:55;;;;;;;1.63;0.87;;;;;;;;;;6204729;23;20449;-88
2023/09/23 00:14:21;;;;;;;2.80;1.00;;;;;;;;;;6204194;23;20374;-86
2023/09/23 00:16:47;;;;;;;0.97;0.87;;;;;;;;;;6203452;23;20366;-86
2023/09/23 00:19:13;;;;;;;2.70;1.10;;;;;;;;;;6229784;23;20548;-86
2023/09/23 00:22:33;;;;;;;0.80;0.70;;;;;;;;;;6230997;23;20374;-87
2023/09/23 00:24:50;;;;;;;2.47;1.10;;;;;;;;;;6252105;23;20382;-87
2023/09/23 00:27:17;;;;;;;1.63;1.00;;;;;;;;;;6229683;23;20373;-88
2023/09/23 00:29:45;;;;;;;2.00;1.23;;;;;;;;;;6235561;23;20861;-88
2023/09/23 00:32:12;;;;;;;1.20;1.10;;;;;;;;;;6202973;23;20398;-87
2023/09/23 00:34:38;;;;;;;2.27;1.20;;;;;;;;;;6204078;23;20453;-89
2023/09/23 00:37:06;;;;;;;1.33;0.83;;;;;;;;;;6201815;23;20390;-87
2023/09/23 00:39:41;;;;;;;2.13;0.67;;;;;;;;;;6232398;23;20379;-88
2023/09/23 00:42:10;;;;;;;3.03;1.30;;;;;;;;;;6206184;23;20432;-87
2023/09/23 00:44:36;;;;;;;1.53;0.80;;;;;;;;;;6201789;23;20394;-88
2023/09/23 00:47:04;;;;;;;2.00;0.90;;;;;;;;;;6201212;23;20393;-87
2023/09/23 00:49:34;;;;;;;1.63;0.90;;;;;;;;;;6231524;23;20358;-87
2023/09/23 00:52:01;;;;;;;1.03;0.93;;;;;;;;;;6203116;23;20401;-88
2023/09/23 00:54:27;;;;;;;1.00;1.00;;;;;;;;;;6210749;23;20406;-88
2023/09/23 00:56:53;;;;;;;1.80;1.33;;;;;;;;;;6225215;23;20750;-88
2023/09/23 00:59:19;;;;;;;0.93;0.80;;;;;;;;;;6205374;23;20441;-88
2023/09/23 01:01:49;;;;;;;1.20;0.93;;;;;;;;;;6202141;23;20387;-88
2023/09/23 01:04:15;;;;;;;1.17;0.80;;;;;;;;;;6202100;23;20409;-86
2023/09/23 01:06:41;;;;;;;1.20;0.83;;;;;;;;;;6227241;23;20342;-86
2023/09/23 01:09:13;;;;;;;0.90;0.60;;;;;;;;;;6206816;23;20481;-87
2023/09/23 01:11:40;;;;;;;0.90;0.77;;;;;;;;;;6204266;23;20381;-89
2023/09/23 01:14:06;;;;;;;0.80;0.70;;;;;;;;;;6204797;23;20453;-87
2023/09/23 01:16:33;;;;;;;2.77;0.90;;;;;;;;;;6202356;23;20915;-88
2023/09/23 01:18:59;;;;;;;0.80;0.80;;;;;;;;;;6205707;23;20793;-87
2023/09/23 01:21:24;;;;;;;1.23;0.70;;;;;;;;;;6228134;23;20397;-86
2023/09/23 01:23:51;;;;;;;0.70;0.60;;;;;;;;;;6202268;23;20413;-88
2023/09/23 01:26:18;;;;;;;0.80;0.70;;;;;;;;;;6226802;23;20394;-88
2023/09/23 01:31:21;;;;;;;1.43;0.70;;;;;;;;;;6253590;22;20448;-87
2023/09/23 01:33:48;;;;;;;1.70;0.90;;;;;;;;;;6204340;23;20409;-87
2023/09/23 01:36:16;;;;;;;0.83;0.70;;;;;;;;;;6202392;23;20872;-87
2023/09/23 01:38:42;;;;;;;1.00;0.80;;;;;;;;;;6202928;22;20453;-87
2023/09/23 01:41:10;;;;;;;3.47;0.80;;;;;;;;;;6202167;23;20386;-88
2023/09/23 01:43:36;;;;;;;0.90;0.70;;;;;;;;;;6254120;23;20398;-88
2023/09/23 01:46:06;;;;;;;0.80;0.60;;;;;;;;;;6201124;23;20386;-86
2023/09/23 01:48:32;;;;;;;1.27;0.60;;;;;;;;;;6203176;23;20382;-87
2023/09/23 01:51:00;;;;;;;0.90;0.77;;;;;;;;;;6202495;23;20388;-88
2023/09/23 01:53:28;;;;;;;1.37;0.97;;;;;;;;;;6202397;23;20465;-88
2023/09/23 01:55:54;;;;;;;1.10;1.00;;;;;;;;;;6202086;23;20866;-88
2023/09/23 01:58:22;;;;;;;0.93;0.70;;;;;;;;;;6200289;23;20480;-88
2023/09/23 02:01:30;;;;;;;0.87;0.83;;;;;;;;;;6204328;23;20487;-87
2023/09/23 02:03:57;;;;;;;0.83;0.67;;;;;;;;;;6223409;23;20417;-88
2023/09/23 02:06:28;;;;;;;0.93;0.87;;;;;;;;;;6203382;23;20416;-88
2023/09/23 02:08:55;;;;;;;1.37;0.90;;;;;;;;;;6224466;22;20366;-88
2023/09/23 02:11:24;;;;;;;0.93;0.83;;;;;;;;;;6167231;23;20364;-89
2023/09/23 02:13:51;;;;;;;6.90;1.10;;;;;;;;;;6187262;23;20820;-88
2023/09/23 02:16:18;;;;;;;0.97;0.87;;;;;;;;;;6139272;23;20380;-88
2023/09/23 02:18:47;;;;;;;0.93;0.83;;;;;;;;;;6139252;23;20463;-88
2023/09/23 02:21:14;;;;;;;1.23;0.70;;;;;;;;;;6167305;23;20410;-88
2023/09/23 02:23:43;;;;;;;1.10;1.00;;;;;;;;;;6142215;23;20757;-88
2023/09/23 02:26:09;;;;;;;0.87;0.63;;;;;;;;;;6165591;23;20384;-88
2023/09/23 02:28:36;;;;;;;1.57;0.60;;;;;;;;;;6140344;23;20990;-88
2023/09/23 02:31:26;;;;;;;1.10;0.90;;;;;;;;;;6144855;23;20396;-88
2023/09/23 02:33:52;;;;;;;0.90;0.70;;;;;;;;;;6189683;23;20713;-88
2023/09/23 02:36:19;;;;;;;0.80;0.80;;;;;;;;;;6144764;23;20388;-88
2023/09/23 02:38:46;;;;;;;2.67;0.87;;;;;;;;;;6165742;23;20428;-88
2023/09/23 02:41:12;;;;;;;0.80;0.80;;;;;;;;;;6167410;23;20384;-89
2023/09/23 02:43:38;;;;;;;3.37;0.80;;;;;;;;;;6165760;23;20494;-87
2023/09/23 02:46:07;;;;;;;0.70;0.60;;;;;;;;;;6166148;23;20912;-87
2023/09/23 02:48:33;;;;;;;0.83;0.70;;;;;;;;;;6191408;23;20446;-89
2023/09/23 02:51:02;;;;;;;1.10;0.83;;;;;;;;;;6143759;23;20380;-89
2023/09/23 02:53:30;;;;;;;1.30;0.80;;;;;;;;;;6139967;23;20394;-88
2023/09/23 02:56:08;;;;;;;2.80;0.90;;;;;;;;;;6141588;23;20368;-88
2023/09/23 02:58:34;;;;;;;1.00;0.60;;;;;;;;;;6165113;23;20427;-88
2023/09/23 03:01:04;;;;;;;0.83;0.83;;;;;;;;;;6140957;23;20395;-88
2023/09/23 03:03:30;;;;;;;1.47;0.70;;;;;;;;;;6140706;23;20919;-88
2023/09/23 03:06:06;;;;;;;0.77;0.70;;;;;;;;;;6145793;23;20377;-87
2023/09/23 03:08:37;;;;;;;1.60;0.90;;;;;;;;;;6195063;23;20405;-88
2023/09/23 03:11:06;;;;;;;1.00;0.87;;;;;;;;;;6141898;23;20460;-88
2023/09/23 03:13:34;;;;;;;1.17;1.07;;;;;;;;;;6174607;23;20363;-88
2023/09/23 03:16:08;;;;;;;1.30;0.93;;;;;;;;;;6201595;23;20370;-88
2023/09/23 03:18:42;;;;;;;1.60;0.90;;;;;;;;;;6205584;23;20413;-88
2023/09/23 03:21:08;;;;;;;1.47;0.70;;;;;;;;;;6227168;23;20374;-87
2023/09/23 03:23:35;;;;;;;1.20;1.10;;;;;;;;;;6205058;23;20402;-88
2023/09/23 03:26:01;;;;;;;4.10;0.90;;;;;;;;;;6201998;23;20374;-89
2023/09/23 03:28:27;;;;;;;1.30;0.70;;;;;;;;;;6202786;23;20378;-88
2023/09/23 03:30:58;;;;;;;2.50;0.73;;;;;;;;;;6202363;23;20420;-88
2023/09/23 03:33:24;;;;;;;1.53;0.80;;;;;;;;;;6203815;23;20714;-87
2023/09/23 03:35:50;;;;;;;0.90;0.90;;;;;;;;;;6202489;23;20390;-88
2023/09/23 03:38:16;;;;;;;0.70;0.70;;;;;;;;;;6214169;23;20446;-87
2023/09/23 03:40:50;;;;;;;1.13;0.80;;;;;;;;;;6203949;23;20884;-87
2023/09/23 03:43:16;;;;;;;1.27;1.03;;;;;;;;;;6205165;23;20427;-88
2023/09/23 03:45:42;;;;;;;1.53;0.70;;;;;;;;;;6203958;23;20382;-89
2023/09/23 03:48:10;;;;;;;0.83;0.70;;;;;;;;;;6206488;23;20382;-88
2023/09/23 03:50:36;;;;;;;1.10;1.00;;;;;;;;;;6203633;23;20884;-89
2023/09/23 03:53:02;;;;;;;6.90;1.27;;;;;;;;;;6204663;23;20417;-88
2023/09/23 03:55:29;;;;;;;1.07;0.80;;;;;;;;;;6203408;23;20398;-88
2023/09/23 03:57:55;;;;;;;1.67;0.90;;;;;;;;;;6202909;23;20498;-88
2023/09/23 04:00:26;;;;;;;1.30;0.87;;;;;;;;;;6203684;23;20436;-88
2023/09/23 04:02:52;;;;;;;1.20;1.10;;;;;;;;;;6205484;23;20377;-88
2023/09/23 04:05:19;;;;;;;3.73;0.90;;;;;;;;;;6204319;23;20382;-88
2023/09/23 04:07:49;;;;;;;1.30;1.00;;;;;;;;;;6210622;23;20385;-89
2023/09/23 04:10:17;;;;;;;1.90;1.00;;;;;;;;;;6233717;23;20858;-87
2023/09/23 04:12:43;;;;;;;1.13;1.03;;;;;;;;;;6204131;23;20461;-87
2023/09/23 04:15:09;;;;;;;1.40;0.90;;;;;;;;;;6202761;23;20393;-88
2023/09/23 04:17:39;;;;;;;2.93;0.70;;;;;;;;;;6203364;23;20467;-89
2023/09/23 04:20:14;;;;;;;0.90;0.77;;;;;;;;;;6208726;23;20386;-89
2023/09/23 04:22:41;;;;;;;1.90;1.00;;;;;;;;;;6208115;23;20407;-89
2023/09/23 04:25:08;;;;;;;4.13;0.90;;;;;;;;;;6205564;23;20408;-90
2023/09/23 04:27:34;;;;;;;2.50;1.33;;;;;;;;;;6228250;23;20358;-90
2023/09/23 04:30:01;;;;;;;1.77;1.00;;;;;;;;;;6206502;22;20398;-89
2023/09/23 04:32:28;;;;;;;1.13;0.80;;;;;;;;;;6201628;23;20374;-90
2023/09/23 04:34:55;;;;;;;1.00;1.00;;;;;;;;;;6201622;23;20406;-89
2023/09/23 04:37:21;;;;;;;2.63;1.27;;;;;;;;;;6200174;23;20432;-89
2023/09/23 04:39:47;;;;;;;1.80;0.97;;;;;;;;;;6207658;23;20394;-90
2023/09/23 04:42:13;;;;;;;2.80;1.30;;;;;;;;;;6200633;23;20461;-90
2023/09/23 04:44:41;;;;;;;1.73;1.13;;;;;;;;;;6205427;23;20386;-89
2023/09/23 04:47:07;;;;;;;3.93;1.13;;;;;;;;;;6203514;23;20384;-89
2023/09/23 04:49:33;;;;;;;1.33;0.90;;;;;;;;;;6206930;23;20417;-89
2023/09/23 04:51:59;;;;;;;4.00;1.47;;;;;;;;;;6203542;23;20455;-89
2023/09/23 04:54:25;;;;;;;0.77;0.70;;;;;;;;;;6205979;23;20878;-88
2023/09/23 04:56:51;;;;;;;0.80;0.80;;;;;;;;;;6203071;23;20941;-90
2023/09/23 04:59:18;;;;;;;1.20;0.83;;;;;;;;;;6203848;23;20418;-90
2023/09/23 05:01:44;;;;;;;1.00;0.90;;;;;;;;;;6203320;23;20497;-89
2023/09/23 05:04:12;;;;;;;1.00;0.70;;;;;;;;;;6204307;23;20452;-89
2023/09/23 05:06:38;;;;;;;1.30;0.90;;;;;;;;;;6203769;23;20451;-89
2023/09/23 05:09:04;;;;;;;1.20;0.80;;;;;;;;;;6234067;23;20385;-89
2023/09/23 05:11:30;;;;;;;1.63;1.07;;;;;;;;;;6228410;23;20692;-89
2023/09/23 05:13:58;;;;;;;0.90;0.60;;;;;;;;;;6203230;23;20725;-87
2023/09/23 05:16:24;;;;;;;1.63;1.30;;;;;;;;;;6202941;23;20404;-87
2023/09/23 05:18:50;;;;;;;1.17;0.70;;;;;;;;;;6203617;23;20437;-87
2023/09/23 05:21:18;;;;;;;1.30;1.10;;;;;;;;;;6204670;23;20430;-89
2023/09/23 05:23:48;;;;;;;1.07;0.97;;;;;;;;;;6228142;22;20363;-90
2023/09/23 05:26:16;;;;;;;1.53;1.10;;;;;;;;;;6206212;23;20382;-89
2023/09/23 05:28:43;;;;;;;1.07;0.97;;;;;;;;;;6203559;23;20453;-88
2023/09/23 05:31:09;;;;;;;2.20;0.73;;;;;;;;;;6139383;23;20540;-89
2023/09/23 05:33:35;;;;;;;1.20;1.00;;;;;;;;;;6111026;23;20389;-90
2023/09/23 05:36:03;;;;;;;1.07;0.90;;;;;;;;;;6111659;23;20388;-87
2023/09/23 05:38:29;;;;;;;1.00;0.80;;;;;;;;;;6111813;23;20556;-88
2023/09/23 05:40:56;;;;;;;0.70;0.63;;;;;;;;;;6117547;23;20435;-88
2023/09/23 05:43:22;;;;;;;3.03;1.03;;;;;;;;;;6112527;23;20470;-88
2023/09/23 05:45:49;;;;;;;1.33;1.00;;;;;;;;;;6112325;23;20393;-88
2023/09/23 05:48:15;;;;;;;2.00;1.03;;;;;;;;;;6111201;23;20460;-88
2023/09/23 05:50:41;;;;;;;1.77;1.10;;;;;;;;;;6140677;23;20668;-87
2023/09/23 05:53:07;;;;;;;0.80;0.80;;;;;;;;;;6111927;23;20377;-87
2023/09/23 05:55:33;;;;;;;1.10;1.00;;;;;;;;;;6111856;23;20420;-88
2023/09/23 05:58:00;;;;;;;1.63;0.70;;;;;;;;;;6110920;23;20452;-87
2023/09/23 06:00:26;;;;;;;1.57;0.70;;;;;;;;;;6114033;23;20458;-88
2023/09/23 06:02:52;;;;;;;1.23;1.00;;;;;;;;;;6184025;22;20413;-87
2023/09/23 06:05:18;;;;;;;1.57;0.80;;;;;;;;;;6200468;23;20773;-87
2023/09/23 06:07:45;;;;;;;1.47;0.93;;;;;;;;;;6200536;23;20432;-88
2023/09/23 06:10:12;;;;;;;1.90;0.80;;;;;;;;;;6208622;23;20733;-89
2023/09/23 06:12:38;;;;;;;1.30;0.90;;;;;;;;;;6200808;23;20773;-88
2023/09/23 06:15:05;;;;;;;0.80;0.73;;;;;;;;;;6200314;23;20374;-87
2023/09/23 06:17:32;;;;;;;2.70;1.00;;;;;;;;;;6199929;23;20417;-87
2023/09/23 06:19:58;;;;;;;1.43;1.00;;;;;;;;;;6206429;23;20473;-90
2023/09/23 06:22:25;;;;;;;0.83;0.70;;;;;;;;;;6203283;23;20366;-90
2023/09/23 06:24:52;;;;;;;1.73;0.87;;;;;;;;;;6204138;23;20393;-90
2023/09/23 06:27:20;;;;;;;3.40;0.90;;;;;;;;;;6228428;23;20370;-90
2023/09/23 06:29:46;;;;;;;0.97;0.87;;;;;;;;;;6206546;23;20436;-90
2023/09/23 06:32:12;;;;;;;1.30;0.80;;;;;;;;;;6204097;23;20367;-90
2023/09/23 06:34:38;;;;;;;2.00;0.80;;;;;;;;;;6204731;23;20448;-90
2023/09/23 06:37:04;;;;;;;1.17;1.03;;;;;;;;;;6204519;23;20458;-91
2023/09/23 06:39:30;;;;;;;0.97;0.63;;;;;;;;;;6206894;23;20413;-91
2023/09/23 06:41:56;;;;;;;0.70;0.50;;;;;;;;;;6207052;23;20378;-90
2023/09/23 06:44:39;;;;;;;0.90;0.67;;;;;;;;;;6208972;23;20382;-91
2023/09/23 06:47:05;;;;;;;1.60;0.63;;;;;;;;;;6229893;23;20366;-90
2023/09/23 06:49:31;;;;;;;1.20;0.60;;;;;;;;;;6207206;22;20362;-91
2023/09/23 06:51:56;;;;;;;1.40;0.90;;;;;;;;;;6206130;23;20374;-91
2023/09/23 06:54:23;;;;;;;0.80;0.70;;;;;;;;;;6209116;23;20374;-92
2023/09/23 06:56:49;;;;;;;1.57;1.00;;;;;;;;;;6168698;23;20714;-92
2023/09/23 06:59:19;;;;;;;1.23;1.00;;;;;;;;;;6150293;23;20445;-91
2023/09/23 07:01:45;;;;;;;0.90;0.80;;;;;;;;;;6174161;23;20937;-92
2023/09/23 07:04:13;;;;;;;1.17;0.80;;;;;;;;;;6174768;23;20383;-92
2023/09/23 07:06:39;;;;;;;0.73;0.67;;;;;;;;;;6173842;23;20455;-91
2023/09/23 07:09:05;;;;;;;0.80;0.70;;;;;;;;;;6171683;23;20446;-91
2023/09/23 07:11:32;;;;;;;1.20;0.60;;;;;;;;;;6171150;23;20380;-91
2023/09/23 07:14:29;;;;;;;1.10;1.00;;;;;;;;;;6173897;23;20922;-90
2023/09/23 07:16:56;;;;;;;0.93;0.70;;;;;;;;;;6195911;23;20478;-91
2023/09/23 07:19:26;;;;;;;1.10;1.00;;;;;;;;;;6173103;23;20443;-91
2023/09/23 07:21:52;;;;;;;4.07;1.20;;;;;;;;;;6200063;23;20398;-91
2023/09/23 07:24:18;;;;;;;1.10;0.90;;;;;;;;;;6170851;23;20399;-90
2023/09/23 07:26:44;;;;;;;1.50;1.00;;;;;;;;;;6180663;23;20423;-90
2023/09/23 07:29:16;;;;;;;2.03;0.83;;;;;;;;;;6206344;23;20362;-92
2023/09/23 07:31:42;;;;;;;1.00;0.83;;;;;;;;;;6234103;23;20375;-90
2023/09/23 07:34:08;;;;;;;1.40;1.30;;;;;;;;;;6209892;23;20406;-91
2023/09/23 07:36:34;;;;;;;1.23;0.70;;;;;;;;;;6208590;23;20408;-91
2023/09/23 07:39:03;;;;;;;1.00;0.70;;;;;;;;;;6233413;23;20410;-91
2023/09/23 07:41:30;;;;;;;2.07;1.27;;;;;;;;;;6232780;23;20386;-91
2023/09/23 07:43:57;;;;;;;1.63;0.90;;;;;;;;;;6210791;23;20370;-92
2023/09/23 07:46:23;;;;;;;1.30;0.93;;;;;;;;;;6169264;23;20400;-90
2023/09/23 07:49:10;;;;;;;1.47;0.80;;;;;;;;;;6146407;23;20387;-91
2023/09/23 07:51:37;;;;;;;1.27;1.07;;;;;;;;;;6170941;23;20387;-92
2023/09/23 07:54:03;;;;;;;2.70;0.83;;;;;;;;;;6148971;23;20380;-92
2023/09/23 07:56:30;;;;;;;1.20;0.80;;;;;;;;;;6176535;23;20387;-92
2023/09/23 07:58:56;;;;;;;4.23;0.90;;;;;;;;;;6146115;23;20519;-92
2023/09/23 08:01:22;;;;;;;0.83;0.70;;;;;;;;;;6148886;23;20406;-92
2023/09/23 08:03:48;;;;;;;1.13;0.93;;;;;;;;;;6146033;23;20380;-92
2023/09/23 08:06:14;;;;;;;1.80;0.77;;;;;;;;;;6145804;23;20399;-92
2023/09/23 08:08:40;;;;;;;1.60;0.90;;;;;;;;;;6146260;23;20516;-92
2023/09/23 08:11:06;;;;;;;1.53;0.80;;;;;;;;;;6171030;23;20380;-92
2023/09/23 08:13:32;;;;;;;1.47;1.17;;;;;;;;;;6150398;23;20376;-91
2023/09/23 08:15:58;;;;;;;1.20;1.00;;;;;;;;;;6146275;23;20424;-91
2023/09/23 08:18:24;;;;;;;3.57;1.40;;;;;;;;;;6207005;23;20452;-91
2023/09/23 08:20:57;;;;;;;0.90;0.70;;;;;;;;;;6233181;23;20386;-92
2023/09/23 08:23:23;;;;;;;2.80;0.90;;;;;;;;;;6182961;22;20974;-93
2023/09/23 08:25:49;;;;;;;1.10;0.80;;;;;;;;;;6210129;23;20378;-90
2023/09/23 08:28:15;;;;;;;0.73;0.60;;;;;;;;;;6208161;23;20701;-91
2023/09/23 08:30:44;;;;;;;3.03;0.73;;;;;;;;;;6209335;23;20401;-92
2023/09/23 08:33:12;;;;;;;1.07;0.70;;;;;;;;;;6208083;23;20370;-90
2023/09/23 08:35:38;;;;;;;1.40;0.70;;;;;;;;;;6210255;23;20384;-90
2023/09/23 08:38:04;;;;;;;1.23;0.70;;;;;;;;;;6205295;22;20414;-90
2023/09/23 08:40:39;;;;;;;3.07;1.00;;;;;;;;;;6231906;23;20370;-91
2023/09/23 08:43:05;;;;;;;1.57;0.70;;;;;;;;;;6213035;23;20362;-91
2023/09/23 08:45:31;;;;;;;1.63;0.90;;;;;;;;;;6229877;23;20705;-91
2023/09/23 08:47:57;;;;;;;0.90;0.80;;;;;;;;;;6208320;23;20450;-92
2023/09/23 08:50:24;;;;;;;0.70;0.60;;;;;;;;;;6206410;23;20400;-93
2023/09/23 08:52:54;;;;;;;1.67;0.80;;;;;;;;;;6212903;23;20377;-91
2023/09/23 08:55:21;;;;;;;0.90;0.73;;;;;;;;;;6235353;23;20339;-90
2023/09/23 08:57:47;;;;;;;3.23;0.83;;;;;;;;;;6206887;23;20441;-91
2023/09/23 09:00:17;;;;;;;1.30;0.97;;;;;;;;;;6211254;23;20414;-94
2023/09/23 09:02:43;;;;;;;2.13;1.00;;;;;;;;;;6208871;23;20393;-93
2023/09/23 09:05:09;;;;;;;1.73;0.83;;;;;;;;;;6213813;23;20368;-91
2023/09/23 09:07:35;;;;;;;0.90;0.77;;;;;;;;;;6206980;23;20394;-94
2023/09/23 09:10:07;;;;;;;2.30;1.13;;;;;;;;;;6233165;23;20385;-93
2023/09/23 09:12:33;;;;;;;1.50;0.87;;;;;;;;;;6179484;23;20388;-91
2023/09/23 09:15:02;;;;;;;4.60;1.00;;;;;;;;;;6209727;23;20408;-91
2023/09/23 09:17:34;;;;;;;1.87;0.70;;;;;;;;;;6207328;23;20378;-92
2023/09/23 09:20:11;;;;;;;1.30;1.00;;;;;;;;;;6210495;23;20378;-91
2023/09/23 09:22:38;;;;;;;2.40;1.10;;;;;;;;;;6230484;23;20372;-93
2023/09/23 09:27:41;;;;;;;1.03;0.77;;;;;;;;;;6254914;22;20449;-92
2023/09/23 09:30:11;;;;;;;1.93;0.60;;;;;;;;;;6209392;23;20390;-90
2023/09/23 09:32:41;;;;;;;1.20;0.93;;;;;;;;;;6208723;23;20382;-91
2023/09/23 09:35:08;;;;;;;1.60;0.90;;;;;;;;;;6234815;23;20374;-91
2023/09/23 09:37:34;;;;;;;2.80;1.13;;;;;;;;;;6207904;23;20394;-91
2023/09/23 09:40:11;;;;;;;2.57;0.80;;;;;;;;;;6211954;23;20386;-89
2023/09/23 09:42:37;;;;;;;1.90;0.90;;;;;;;;;;6209811;23;20837;-92
2023/09/23 09:45:05;;;;;;;1.23;0.73;;;;;;;;;;6209191;23;20481;-91
2023/09/23 09:47:32;;;;;;;2.20;0.70;;;;;;;;;;6156673;23;20382;-91
2023/09/23 09:49:58;;;;;;;3.27;0.90;;;;;;;;;;6206888;23;20378;-91
2023/09/23 09:52:24;;;;;;;1.37;0.70;;;;;;;;;;6208311;23;20405;-91
2023/09/23 09:55:01;;;;;;;1.10;0.80;;;;;;;;;;6208467;23;20444;-92
2023/09/23 09:57:28;;;;;;;0.83;0.53;;;;;;;;;;6232377;22;20373;-91
2023/09/23 10:02:33;;;;;;;0.90;0.60;;;;;;;;;;6256720;22;20444;-91
2023/09/23 10:05:06;;;;;;;1.57;0.90;;;;;;;;;;6208800;22;20370;-93
2023/09/23 10:07:50;;;;;;;2.70;0.83;;;;;;;;;;6234004;22;20406;-92
2023/09/23 10:10:17;;;;;;;2.93;1.83;;;;;;;;;;6234480;22;20382;-92
2023/09/23 10:12:54;;;;;;;3.93;0.97;;;;;;;;;;6239749;22;20445;-92
2023/09/23 10:15:40;;;;;;;1.90;0.70;;;;;;;;;;6151631;23;20373;-92
2023/09/23 10:18:22;;;;;;;2.00;0.83;;;;;;;;;;6123905;23;20413;-92
2023/09/23 10:20:58;;;;;;;0.87;0.70;;;;;;;;;;6101125;23;20393;-93
2023/09/23 10:23:26;;;;;;;1.90;0.70;;;;;;;;;;6122232;23;20406;-94
2023/09/23 10:25:52;;;;;;;1.63;1.20;;;;;;;;;;6096912;23;20418;-92
2023/09/23 10:28:23;;;;;;;2.10;0.83;;;;;;;;;;6117080;23;20365;-93
2023/09/23 11:05:37;;;;;;;1.77;0.87;;;;;;;;;;6256666;22;20438;-93
2023/09/23 11:08:07;;;;;;;2.03;0.73;;;;;;;;;;6206305;23;20378;-93
2023/09/23 11:10:36;;;;;;;1.60;0.90;;;;;;;;;;6206786;23;20397;-94
2023/09/23 11:13:05;;;;;;;2.30;0.70;;;;;;;;;;6209649;23;20374;-93
2023/09/23 11:15:38;;;;;;;1.60;1.10;;;;;;;;;;6237688;23;20449;-93
2023/09/23 11:18:28;;;;;;;1.23;0.83;;;;;;;;;;6206886;23;20426;-93
2023/09/23 11:20:58;;;;;;;2.90;1.13;;;;;;;;;;6235283;23;20386;-93
2023/09/23 11:23:29;;;;;;;2.17;1.00;;;;;;;;;;6233746;23;20477;-93
2023/09/23 11:25:55;;;;;;;3.27;1.10;;;;;;;;;;6209598;23;20386;-93
2023/09/23 11:28:33;;;;;;;4.73;1.20;;;;;;;;;;6233587;23;20370;-92
2023/09/23 11:30:59;;;;;;;2.83;1.20;;;;;;;;;;6198566;23;20716;-93
2023/09/23 11:33:25;;;;;;;2.70;0.80;;;;;;;;;;6146816;23;20380;-92
2023/09/23 11:35:57;;;;;;;1.30;0.90;;;;;;;;;;6150757;23;20433;-94
2023/09/23 11:38:23;;;;;;;1.80;1.00;;;;;;;;;;6173120;23;20463;-95
2023/09/23 11:40:49;;;;;;;2.80;1.37;;;;;;;;;;6146815;23;20395;-92
2023/09/23 11:43:16;;;;;;;3.10;1.00;;;;;;;;;;6145298;23;20368;-93
2023/09/23 11:45:52;;;;;;;0.90;0.60;;;;;;;;;;6150248;23;20467;-92
2023/09/23 11:48:20;;;;;;;2.00;0.77;;;;;;;;;;6171987;23;20380;-93
2023/09/23 11:50:48;;;;;;;3.30;0.80;;;;;;;;;;6149549;23;20389;-93
2023/09/23 11:53:18;;;;;;;1.10;0.80;;;;;;;;;;6135889;23;20370;-93
2023/09/23 11:55:46;;;;;;;1.80;0.70;;;;;;;;;;6120842;23;20403;-93
2023/09/23 11:58:12;;;;;;;1.30;1.00;;;;;;;;;;6144686;23;20432;-94
2023/09/23 12:00:53;;;;;;;;;;;;;;;;;;;;;
2023/09/23 12:03:20;;;;;;;2.50;1.00;;;;;;;;;;6167363;23;20381;-92
2023/09/23 12:05:48;;;;;;;1.73;1.10;;;;;;;;;;6145831;23;20396;-91
2023/09/23 12:08:14;;;;;;;1.93;1.00;;;;;;;;;;6142420;23;20396;-93
2023/09/23 12:10:42;;;;;;;7.83;1.37;;;;;;;;;;6141309;23;20460;-93
2023/09/23 12:13:08;;;;;;;1.40;0.77;;;;;;;;;;6140955;23;20410;-92
2023/09/23 12:15:43;;;;;;;1.37;0.93;;;;;;;;;;6143843;23;20392;-92
2023/09/23 12:18:09;;;;;;;1.50;0.90;;;;;;;;;;6145872;23;20419;-94
2023/09/23 12:20:35;;;;;;;1.90;0.83;;;;;;;;;;6146235;23;20380;-93
2023/09/23 12:23:01;;;;;;;1.37;0.70;;;;;;;;;;6141020;23;20404;-93
2023/09/23 12:25:28;;;;;;;3.50;0.87;;;;;;;;;;6142496;23;20387;-91
2023/09/23 12:27:54;;;;;;;1.80;0.87;;;;;;;;;;6141878;23;20761;-92
2023/09/23 12:30:20;;;;;;;5.30;1.00;;;;;;;;;;6145537;23;20454;-92
2023/09/23 12:32:46;;;;;;;1.20;0.80;;;;;;;;;;6141796;23;20388;-91
2023/09/23 12:35:12;;;;;;;2.27;0.80;;;;;;;;;;6143906;23;20381;-92
2023/09/23 12:37:39;;;;;;;2.30;1.37;;;;;;;;;;6141061;23;20408;-94
2023/09/23 12:40:06;;;;;;;2.30;1.60;;;;;;;;;;6189908;22;20448;-93
2023/09/23 12:42:33;;;;;;;2.03;0.90;;;;;;;;;;6239748;22;20393;-92
2023/09/23 12:44:59;;;;;;;1.97;1.00;;;;;;;;;;6241112;22;20416;-92
2023/09/23 12:47:25;;;;;;;2.20;1.30;;;;;;;;;;6242919;22;20864;-94
2023/09/23 12:49:51;;;;;;;2.27;0.80;;;;;;;;;;6247500;22;20390;-94
2023/09/23 12:52:19;;;;;;;1.60;0.87;;;;;;;;;;6270899;22;20392;-95
2023/09/23 12:54:47;;;;;;;3.70;1.00;;;;;;;;;;6243731;22;20437;-93
2023/09/23 12:57:13;;;;;;;1.30;0.70;;;;;;;;;;6244074;22;20429;-95
2023/09/23 12:59:39;;;;;;;1.77;0.80;;;;;;;;;;6246230;22;20437;-96
2023/09/23 13:02:06;;;;;;;1.50;0.70;;;;;;;;;;6242982;22;20477;-94
2023/09/23 13:04:32;;;;;;;1.97;0.93;;;;;;;;;;6245901;22;20388;-96
2023/09/23 13:06:58;;;;;;;1.13;0.60;;;;;;;;;;6244979;22;20377;-96
2023/09/23 13:09:28;;;;;;;1.17;0.73;;;;;;;;;;6246251;22;20385;-95
2023/09/23 13:11:54;;;;;;;1.23;1.00;;;;;;;;;;6193050;22;20373;-94
2023/09/23 13:14:24;;;;;;;3.20;1.00;;;;;;;;;;6196400;22;20478;-94
2023/09/23 13:16:50;;;;;;;2.00;1.80;;;;;;;;;;6234295;23;20414;-96
2023/09/23 13:19:25;;;;;;;2.17;1.20;;;;;;;;;;6210615;23;20426;-95
2023/09/23 13:21:55;;;;;;;1.43;0.90;;;;;;;;;;6235065;23;20405;-94
2023/09/23 13:24:21;;;;;;;1.90;0.80;;;;;;;;;;6210388;23;20675;-95
2023/09/23 13:26:47;;;;;;;1.10;0.90;;;;;;;;;;6210626;23;20386;-96
2023/09/23 13:29:14;;;;;;;1.30;0.77;;;;;;;;;;6209535;23;20387;-96
2023/09/23 13:31:43;;;;;;;1.60;0.80;;;;;;;;;;6210528;23;20400;-96
2023/09/23 13:39:21;;;;;;;1.57;0.77;;;;;;;;;;6248771;22;20548;-96
2023/09/23 13:41:48;;;;;;;1.10;0.80;;;;;;;;;;6246437;22;20931;-96
2023/09/23 13:44:17;;;;;;;1.40;0.80;;;;;;;;;;6197100;22;20715;-95
2023/09/23 13:51:56;;;;;;;1.43;0.80;;;;;;;;;;6261276;22;20444;-96
2023/09/23 13:56:58;;;;;;;2.13;0.93;;;;;;;;;;6268162;22;20421;-96
2023/09/23 13:59:24;;;;;;;3.27;0.70;;;;;;;;;;6216240;23;20425;-96
2023/09/23 14:01:52;;;;;;;4.53;1.70;;;;;;;;;;6266230;22;20382;-96
2023/09/23 14:04:21;;;;;;;1.20;0.70;;;;;;;;;;6214953;23;20378;-95
2023/09/23 14:06:47;;;;;;;2.83;0.87;;;;;;;;;;6215011;22;20374;-95
2023/09/23 14:09:13;;;;;;;3.37;1.00;;;;;;;;;;6214703;22;20394;-95
2023/09/23 14:11:39;;;;;;;2.63;1.00;;;;;;;;;;6209964;23;20389;-96
2023/09/23 14:14:05;;;;;;;1.10;0.80;;;;;;;;;;6213299;23;20458;-94
2023/09/23 14:16:39;;;;;;;1.13;0.90;;;;;;;;;;6220050;23;20386;-94
2023/09/23 14:21:41;;;;;;;1.30;0.70;;;;;;;;;;6260484;22;20707;-92
2023/09/23 14:24:28;;;;;;;1.50;0.70;;;;;;;;;;6205078;22;20988;-95
2023/09/23 14:26:54;;;;;;;4.30;0.70;;;;;;;;;;6162082;23;20390;-94
2023/09/23 14:29:20;;;;;;;1.20;0.70;;;;;;;;;;6209385;23;20388;-94
2023/09/23 14:31:46;;;;;;;1.70;0.83;;;;;;;;;;6205954;23;20386;-94
2023/09/23 14:34:12;;;;;;;1.77;0.73;;;;;;;;;;6210362;23;20417;-96
2023/09/23 14:36:38;;;;;;;2.07;1.30;;;;;;;;;;6207063;23;20375;-95
2023/09/23 14:39:05;;;;;;;2.40;1.00;;;;;;;;;;6207415;23;20399;-95
2023/09/23 14:41:34;;;;;;;7.40;0.80;;;;;;;;;;6230922;23;20403;-95
2023/09/23 14:44:00;;;;;;;1.00;0.70;;;;;;;;;;6207954;23;20430;-93
2023/09/23 14:46:28;;;;;;;5.90;0.80;;;;;;;;;;6228504;23;20355;-95
2023/09/23 14:56:41;;;;;;;1.43;1.07;;;;;;;;;;6234446;23;20426;-94
2023/09/23 14:59:07;;;;;;;2.83;1.07;;;;;;;;;;6206434;23;20482;-94
2023/09/23 15:01:33;;;;;;;10.00;9.10;;;;;;;;;;6231583;23;20376;-94
2023/09/23 15:04:18;;;;;;;0.90;0.80;;;;;;;;;;6209751;23;20456;-94
2023/09/23 15:09:20;;;;;;;0.97;0.70;;;;;;;;;;6203603;23;20450;-94
2023/09/23 15:12:11;;;;;;;3.13;1.00;;;;;;;;;;6151173;23;20456;-94
2023/09/23 15:14:38;;;;;;;1.70;0.77;;;;;;;;;;6176309;23;20416;-96
2023/09/23 15:17:07;;;;;;;1.70;0.87;;;;;;;;;;6153047;23;20408;-94
2023/09/23 15:19:33;;;;;;;4.83;0.67;;;;;;;;;;6152560;23;20535;-94
2023/09/23 15:24:37;;;;;;;2.13;1.10;;;;;;;;;;6204652;23;20486;-93
2023/09/23 15:27:04;;;;;;;3.63;1.00;;;;;;;;;;6213526;23;20403;-91
2023/09/23 15:29:31;;;;;;;3.33;3.00;;;;;;;;;;6210872;23;20390;-95
2023/09/23 15:31:57;;;;;;;1.20;0.77;;;;;;;;;;6209231;23;20447;-93
2023/09/23 15:34:26;;;;;;;3.00;1.00;;;;;;;;;;6211030;23;20784;-94
2023/09/23 15:36:54;;;;;;;2.47;1.10;;;;;;;;;;6213462;23;20406;-94
2023/09/23 15:39:23;;;;;;;2.50;0.70;;;;;;;;;;6201574;23;20411;-93
2023/09/23 15:41:51;;;;;;;14.30;10.97;;;;;;;;;;6178321;23;20360;-93
2023/09/23 15:44:20;;;;;;;8.20;3.30;;;;;;;;;;6175251;23;20368;-92
2023/09/23 15:46:47;;;;;;;1.33;0.97;;;;;;;;;;6178851;23;20451;-92
2023/09/23 15:49:14;;;;;;;2.10;0.70;;;;;;;;;;6174225;23;20480;-92
2023/09/23 15:51:43;;;;;;;4.00;1.00;;;;;;;;;;6180156;23;20450;-92
2023/09/23 15:54:10;;;;;;;1.67;0.73;;;;;;;;;;6178452;23;20380;-92
2023/09/23 15:56:39;;;;;;;2.03;1.87;;;;;;;;;;6176654;23;20395;-92
2023/09/23 15:59:06;;;;;;;1.37;0.93;;;;;;;;;;6180541;23;20436;-92
2023/09/23 16:01:32;;;;;;;1.40;0.90;;;;;;;;;;6180762;23;20392;-92